createdAt,value
2023-09-17T00:00:17.468Z,20.15
2023-09-17T00:01:17.446Z,20.15
2023-09-17T00:02:17.541Z,20.14
2023-09-17T00:03:17.591Z,20.14
2023-09-17T00:04:17.435Z,20.11
2023-09-17T00:05:17.345Z,20.11
2023-09-17T00:06:17.337Z,20.11
2023-09-17T00:07:17.412Z,20.09
2023-09-17T00:08:17.312Z,20.09
2023-09-17T00:09:17.343Z,20.09
2023-09-17T00:10:17.300Z,20.08
2023-09-17T00:11:17.279Z,20.09
2023-09-17T00:12:17.272Z,20.08
2023-09-17T00:13:17.298Z,20.08
2023-09-17T00:14:17.243Z,20.07
2023-09-17T00:15:17.323Z,20.07
2023-09-17T00:16:17.290Z,20.05
2023-09-17T00:17:17.339Z,20.04
2023-09-17T00:18:17.280Z,20.04
2023-09-17T00:19:17.227Z,20.02
2023-09-17T00:20:17.181Z,20.02
2023-09-17T00:21:17.174Z,20.02
2023-09-17T00:22:17.289Z,19.99
2023-09-17T00:23:17.193Z,19.99
2023-09-17T00:24:17.136Z,19.97
2023-09-17T00:25:17.210Z,19.96
2023-09-17T00:26:17.118Z,19.96
2023-09-17T00:27:17.124Z,19.94
2023-09-17T00:28:17.239Z,19.93
2023-09-17T00:29:17.114Z,19.92
2023-09-17T00:30:17.082Z,19.90
2023-09-17T00:31:17.181Z,19.92
2023-09-17T00:32:17.066Z,19.90
2023-09-17T00:33:17.052Z,19.89
2023-09-17T00:34:17.056Z,19.89
2023-09-17T00:35:17.019Z,19.87
2023-09-17T00:36:17.008Z,19.86
2023-09-17T00:37:17.224Z,19.86
2023-09-17T00:38:17.118Z,19.84
2023-09-17T00:39:16.986Z,19.81
2023-09-17T00:40:17.001Z,19.79
2023-09-17T00:41:16.954Z,19.78
2023-09-17T00:42:16.986Z,19.75
2023-09-17T00:43:17.046Z,19.74
2023-09-17T00:44:16.934Z,19.71
2023-09-17T00:45:16.919Z,19.68
2023-09-17T00:46:16.988Z,19.68
2023-09-17T00:47:16.940Z,19.67
2023-09-17T00:48:16.900Z,19.63
2023-09-17T00:49:16.890Z,19.62
2023-09-17T00:50:16.861Z,19.60
2023-09-17T00:51:16.847Z,19.59
2023-09-17T00:52:16.896Z,19.59
2023-09-17T00:53:16.825Z,19.59
2023-09-17T00:54:16.823Z,19.54
2023-09-17T00:55:16.950Z,19.53
2023-09-17T00:56:16.843Z,19.50
2023-09-17T00:57:16.780Z,19.49
2023-09-17T00:58:16.946Z,19.49
2023-09-17T00:59:16.764Z,19.47
2023-09-17T01:00:16.752Z,19.45
2023-09-17T01:01:16.853Z,19.44
2023-09-17T01:02:16.774Z,19.42
2023-09-17T01:03:16.859Z,19.41
2023-09-17T01:04:16.836Z,19.39
2023-09-17T01:05:16.705Z,19.41
2023-09-17T01:06:16.698Z,19.41
2023-09-17T01:07:16.750Z,19.41
2023-09-17T01:08:16.696Z,19.39
2023-09-17T01:09:16.661Z,19.42
2023-09-17T01:10:16.798Z,19.39
2023-09-17T01:11:16.742Z,19.41
2023-09-17T01:12:16.708Z,19.41
2023-09-17T01:13:16.683Z,19.38
2023-09-17T01:14:16.756Z,19.39
2023-09-17T01:15:16.596Z,19.41
2023-09-17T01:16:16.700Z,19.39
2023-09-17T01:17:16.590Z,19.39
2023-09-17T01:18:16.555Z,19.38
2023-09-17T01:19:16.563Z,19.35
2023-09-17T01:20:16.533Z,19.37
2023-09-17T01:21:16.526Z,19.37
2023-09-17T01:22:16.585Z,19.32
2023-09-17T01:23:16.521Z,19.30
2023-09-17T01:24:16.502Z,19.27
2023-09-17T01:25:16.502Z,19.26
2023-09-17T01:26:16.469Z,19.27
2023-09-17T01:27:16.467Z,19.26
2023-09-17T01:28:16.562Z,19.30
2023-09-17T01:29:16.449Z,19.27
2023-09-17T01:30:16.446Z,19.31
2023-09-17T01:31:16.553Z,19.31
2023-09-17T01:32:16.471Z,19.26
2023-09-17T01:33:16.497Z,19.27
2023-09-17T01:34:16.443Z,19.27
2023-09-17T01:35:16.384Z,19.26
2023-09-17T01:36:16.399Z,19.23
2023-09-17T01:37:16.397Z,19.22
2023-09-17T01:38:16.392Z,19.23
2023-09-17T01:39:16.343Z,19.19
2023-09-17T01:40:16.346Z,19.16
2023-09-17T01:41:16.323Z,19.13
2023-09-17T01:42:16.406Z,19.09
2023-09-17T01:43:16.331Z,19.07
2023-09-17T01:44:16.294Z,19.01
2023-09-17T01:45:16.346Z,19.00
2023-09-17T01:46:16.444Z,18.96
2023-09-17T01:47:16.250Z,18.93
2023-09-17T01:48:16.239Z,18.93
2023-09-17T01:49:16.263Z,18.88
2023-09-17T01:50:16.301Z,18.88
2023-09-17T01:51:16.208Z,18.86
2023-09-17T01:52:16.266Z,18.85
2023-09-17T01:53:16.194Z,18.85
2023-09-17T01:54:16.219Z,18.82
2023-09-17T01:55:16.170Z,18.81
2023-09-17T01:56:16.248Z,18.81
2023-09-17T01:57:16.149Z,18.81
2023-09-17T01:58:16.175Z,18.78
2023-09-17T01:59:16.118Z,18.79
2023-09-17T02:00:16.122Z,18.82
2023-09-17T02:01:16.227Z,18.81
2023-09-17T02:02:16.175Z,18.82
2023-09-17T02:03:16.194Z,18.83
2023-09-17T02:04:16.097Z,18.82
2023-09-17T02:05:16.061Z,18.83
2023-09-17T02:06:16.151Z,18.82
2023-09-17T02:07:16.159Z,18.82
2023-09-17T02:08:16.060Z,18.79
2023-09-17T02:09:16.018Z,18.81
2023-09-17T02:10:16.117Z,18.79
2023-09-17T02:11:15.996Z,18.82
2023-09-17T02:12:15.981Z,18.81
2023-09-17T02:13:16.165Z,18.81
2023-09-17T02:14:15.971Z,18.81
2023-09-17T02:15:15.948Z,18.82
2023-09-17T02:16:16.031Z,18.82
2023-09-17T02:17:15.935Z,18.86
2023-09-17T02:18:16.046Z,18.88
2023-09-17T02:19:15.912Z,18.89
2023-09-17T02:20:15.959Z,18.93
2023-09-17T02:21:15.876Z,18.94
2023-09-17T02:22:15.869Z,18.94
2023-09-17T02:23:15.853Z,18.96
2023-09-17T02:24:15.911Z,18.97
2023-09-17T02:25:15.876Z,18.97
2023-09-17T02:26:15.822Z,18.98
2023-09-17T02:27:15.809Z,18.98
2023-09-17T02:28:15.873Z,18.97
2023-09-17T02:29:15.799Z,18.98
2023-09-17T02:30:15.860Z,19.00
2023-09-17T02:31:15.893Z,19.01
2023-09-17T02:32:15.786Z,19.01
2023-09-17T02:33:15.746Z,19.04
2023-09-17T02:34:15.787Z,19.07
2023-09-17T02:35:15.732Z,19.08
2023-09-17T02:36:15.817Z,19.09
2023-09-17T02:37:15.735Z,19.09
2023-09-17T02:38:15.791Z,19.09
2023-09-17T02:39:22.842Z,19.09
2023-09-17T02:40:15.921Z,19.13
2023-09-17T02:41:15.658Z,19.13
2023-09-17T02:42:15.652Z,19.13
2023-09-17T02:43:15.633Z,19.12
2023-09-17T02:44:15.632Z,19.09
2023-09-17T02:45:15.755Z,19.12
2023-09-17T02:46:15.699Z,19.09
2023-09-17T02:47:15.652Z,19.09
2023-09-17T02:48:15.616Z,19.09
2023-09-17T02:49:15.684Z,19.09
2023-09-17T02:50:15.670Z,19.08
2023-09-17T02:51:15.556Z,19.07
2023-09-17T02:52:15.711Z,19.05
2023-09-17T02:53:15.534Z,19.05
2023-09-17T02:54:15.625Z,19.05
2023-09-17T02:55:15.522Z,19.04
2023-09-17T02:56:15.626Z,19.04
2023-09-17T02:57:15.506Z,19.01
2023-09-17T02:58:15.562Z,19.01
2023-09-17T02:59:15.488Z,19.01
2023-09-17T03:00:15.456Z,19.00
2023-09-17T03:01:15.528Z,19.01
2023-09-17T03:02:15.544Z,19.01
2023-09-17T03:03:15.580Z,19.00
2023-09-17T03:04:15.571Z,18.98
2023-09-17T03:05:15.523Z,19.00
2023-09-17T03:06:15.398Z,19.00
2023-09-17T03:07:15.574Z,18.98
2023-09-17T03:08:15.368Z,18.96
2023-09-17T03:09:15.446Z,18.94
2023-09-17T03:10:15.394Z,18.94
2023-09-17T03:11:15.376Z,18.94
2023-09-17T03:12:15.357Z,18.93
2023-09-17T03:13:15.330Z,18.93
2023-09-17T03:14:15.310Z,18.93
2023-09-17T03:15:15.414Z,18.93
2023-09-17T03:16:15.412Z,18.93
2023-09-17T03:17:15.439Z,18.93
2023-09-17T03:18:15.431Z,18.93
2023-09-17T03:19:15.292Z,18.91
2023-09-17T03:20:15.480Z,18.93
2023-09-17T03:21:15.291Z,18.93
2023-09-17T03:22:15.352Z,18.91
2023-09-17T03:23:15.285Z,18.93
2023-09-17T03:24:15.200Z,18.91
2023-09-17T03:25:15.241Z,18.91
2023-09-17T03:26:15.182Z,18.93
2023-09-17T03:27:15.192Z,18.89
2023-09-17T03:28:15.203Z,18.89
2023-09-17T03:29:15.264Z,18.89
2023-09-17T03:30:15.151Z,18.88
2023-09-17T03:31:15.176Z,18.86
2023-09-17T03:32:15.147Z,18.86
2023-09-17T03:33:15.229Z,18.86
2023-09-17T03:34:15.262Z,18.86
2023-09-17T03:35:15.083Z,18.88
2023-09-17T03:36:15.066Z,18.88
2023-09-17T03:37:15.096Z,18.88
2023-09-17T03:38:15.116Z,18.88
2023-09-17T03:39:15.223Z,18.88
2023-09-17T03:40:15.030Z,18.86
2023-09-17T03:41:15.018Z,18.86
2023-09-17T03:42:15.004Z,18.85
2023-09-17T03:43:14.993Z,18.83
2023-09-17T03:44:14.983Z,18.85
2023-09-17T03:45:15.166Z,18.85
2023-09-17T03:46:14.992Z,18.85
2023-09-17T03:47:14.986Z,18.83
2023-09-17T03:48:14.965Z,18.82
2023-09-17T03:49:14.929Z,18.81
2023-09-17T03:50:14.998Z,18.79
2023-09-17T03:51:15.002Z,18.79
2023-09-17T03:52:14.904Z,18.79
2023-09-17T03:53:14.894Z,18.79
2023-09-17T03:54:14.873Z,18.78
2023-09-17T03:55:14.948Z,18.81
2023-09-17T03:56:14.848Z,18.79
2023-09-17T03:57:14.936Z,18.82
2023-09-17T03:58:14.837Z,18.82
2023-09-17T03:59:14.829Z,18.83
2023-09-17T04:00:14.879Z,18.85
2023-09-17T04:01:14.858Z,18.86
2023-09-17T04:02:14.851Z,18.83
2023-09-17T04:03:14.813Z,18.85
2023-09-17T04:04:14.865Z,18.83
2023-09-17T04:05:14.751Z,18.82
2023-09-17T04:06:14.736Z,18.82
2023-09-17T04:07:14.725Z,18.82
2023-09-17T04:08:14.715Z,18.79
2023-09-17T04:09:14.709Z,18.79
2023-09-17T04:10:14.835Z,18.75
2023-09-17T04:11:14.684Z,18.71
2023-09-17T04:12:14.684Z,18.70
2023-09-17T04:13:14.674Z,18.70
2023-09-17T04:14:14.755Z,18.68
2023-09-17T04:15:14.924Z,18.67
2023-09-17T04:16:14.689Z,18.63
2023-09-17T04:17:14.754Z,18.60
2023-09-17T04:18:14.606Z,18.58
2023-09-17T04:19:15.275Z,18.58
2023-09-17T04:20:14.647Z,18.58
2023-09-17T04:21:14.572Z,18.56
2023-09-17T04:22:14.602Z,18.52
2023-09-17T04:23:14.558Z,18.51
2023-09-17T04:24:14.544Z,18.49
2023-09-17T04:25:14.641Z,18.46
2023-09-17T04:26:14.528Z,18.45
2023-09-17T04:27:14.516Z,18.46
2023-09-17T04:28:14.605Z,18.45
2023-09-17T04:29:14.493Z,18.45
2023-09-17T04:30:14.571Z,18.46
2023-09-17T04:31:14.546Z,18.46
2023-09-17T04:32:14.546Z,18.48
2023-09-17T04:33:14.543Z,18.48
2023-09-17T04:34:14.456Z,18.48
2023-09-17T04:35:14.428Z,18.51
2023-09-17T04:36:14.539Z,18.51
2023-09-17T04:37:14.413Z,18.51
2023-09-17T04:38:14.549Z,18.51
2023-09-17T04:39:14.402Z,18.52
2023-09-17T04:40:14.457Z,18.51
2023-09-17T04:41:14.438Z,18.49
2023-09-17T04:42:14.354Z,18.48
2023-09-17T04:43:14.346Z,18.46
2023-09-17T04:44:14.383Z,18.46
2023-09-17T04:45:14.354Z,18.45
2023-09-17T04:46:14.435Z,18.43
2023-09-17T04:47:14.361Z,18.42
2023-09-17T04:48:14.331Z,18.43
2023-09-17T04:49:14.316Z,18.42
2023-09-17T04:50:14.357Z,18.42
2023-09-17T04:51:14.325Z,18.41
2023-09-17T04:52:14.373Z,18.41
2023-09-17T04:53:14.248Z,18.41
2023-09-17T04:54:14.331Z,18.41
2023-09-17T04:55:14.290Z,18.42
2023-09-17T04:56:14.224Z,18.42
2023-09-17T04:57:14.208Z,18.42
2023-09-17T04:58:14.241Z,18.38
2023-09-17T04:59:14.236Z,18.41
2023-09-17T05:00:14.203Z,18.41
2023-09-17T05:01:14.215Z,18.41
2023-09-17T05:02:14.280Z,18.41
2023-09-17T05:03:14.288Z,18.41
2023-09-17T05:04:14.262Z,18.38
2023-09-17T05:05:14.164Z,18.38
2023-09-17T05:06:14.173Z,18.38
2023-09-17T05:07:14.096Z,18.36
2023-09-17T05:08:14.078Z,18.36
2023-09-17T05:09:14.066Z,18.38
2023-09-17T05:10:14.122Z,18.38
2023-09-17T05:11:14.040Z,18.38
2023-09-17T05:12:14.089Z,18.38
2023-09-17T05:13:14.022Z,18.38
2023-09-17T05:14:14.085Z,18.34
2023-09-17T05:15:14.006Z,18.34
2023-09-17T05:16:14.015Z,18.34
2023-09-17T05:17:14.032Z,18.33
2023-09-17T05:18:14.066Z,18.34
2023-09-17T05:19:13.953Z,18.34
2023-09-17T05:20:13.944Z,18.34
2023-09-17T05:21:13.936Z,18.36
2023-09-17T05:22:14.082Z,18.38
2023-09-17T05:23:13.932Z,18.39
2023-09-17T05:24:14.022Z,18.39
2023-09-17T05:25:13.894Z,18.36
2023-09-17T05:26:13.883Z,18.36
2023-09-17T05:27:13.873Z,18.36
2023-09-17T05:28:13.877Z,18.34
2023-09-17T05:29:13.913Z,18.34
2023-09-17T05:30:13.888Z,18.33
2023-09-17T05:31:13.853Z,18.30
2023-09-17T05:32:13.888Z,18.30
2023-09-17T05:33:13.859Z,18.30
2023-09-17T05:34:13.876Z,18.28
2023-09-17T05:35:13.907Z,18.27
2023-09-17T05:36:13.781Z,18.26
2023-09-17T05:37:13.776Z,18.24
2023-09-17T05:38:13.758Z,18.26
2023-09-17T05:39:13.757Z,18.24
2023-09-17T05:40:13.817Z,18.23
2023-09-17T05:41:13.730Z,18.24
2023-09-17T05:42:13.711Z,18.23
2023-09-17T05:43:13.704Z,18.21
2023-09-17T05:44:13.706Z,18.23
2023-09-17T05:45:13.687Z,18.23
2023-09-17T05:46:13.777Z,18.24
2023-09-17T05:47:13.653Z,18.24
2023-09-17T05:48:13.677Z,18.26
2023-09-17T05:49:13.632Z,18.26
2023-09-17T05:50:13.668Z,18.27
2023-09-17T05:51:13.614Z,18.26
2023-09-17T05:52:13.674Z,18.28
2023-09-17T05:53:13.600Z,18.28
2023-09-17T05:54:13.584Z,18.31
2023-09-17T05:55:13.605Z,18.31
2023-09-17T05:56:13.585Z,18.31
2023-09-17T05:57:13.564Z,18.31
2023-09-17T05:58:13.540Z,18.30
2023-09-17T05:59:13.595Z,18.31
2023-09-17T06:00:13.531Z,18.28
2023-09-17T06:01:13.587Z,18.27
2023-09-17T06:02:13.627Z,18.27
2023-09-17T06:03:13.556Z,18.27
2023-09-17T06:04:13.477Z,18.24
2023-09-17T06:05:13.492Z,18.26
2023-09-17T06:06:13.504Z,18.23
2023-09-17T06:07:13.455Z,18.23
2023-09-17T06:08:13.555Z,18.23
2023-09-17T06:09:13.442Z,18.24
2023-09-17T06:10:13.438Z,18.24
2023-09-17T06:11:13.414Z,18.24
2023-09-17T06:12:13.446Z,18.23
2023-09-17T06:13:13.396Z,18.26
2023-09-17T06:14:13.377Z,18.26
2023-09-17T06:15:13.362Z,18.27
2023-09-17T06:16:13.394Z,18.27
2023-09-17T06:17:13.393Z,18.27
2023-09-17T06:18:13.538Z,18.26
2023-09-17T06:19:14.289Z,18.26
2023-09-17T06:20:13.299Z,18.27
2023-09-17T06:21:13.348Z,18.27
2023-09-17T06:22:13.280Z,18.27
2023-09-17T06:23:13.316Z,18.27
2023-09-17T06:24:13.276Z,18.27
2023-09-17T06:25:13.257Z,18.28
2023-09-17T06:26:13.298Z,18.28
2023-09-17T06:27:13.317Z,18.30
2023-09-17T06:28:13.215Z,18.30
2023-09-17T06:29:13.282Z,18.27
2023-09-17T06:30:13.201Z,18.28
2023-09-17T06:31:15.511Z,18.27
2023-09-17T06:32:13.205Z,18.26
2023-09-17T06:33:13.227Z,18.27
2023-09-17T06:34:13.231Z,18.27
2023-09-17T06:35:13.180Z,18.27
2023-09-17T06:36:13.134Z,18.26
2023-09-17T06:37:13.139Z,18.26
2023-09-17T06:38:13.111Z,18.27
2023-09-17T06:39:13.182Z,18.28
2023-09-17T06:40:13.498Z,18.28
2023-09-17T06:41:13.091Z,18.30
2023-09-17T06:42:13.070Z,18.31
2023-09-17T06:43:13.067Z,18.31
2023-09-17T06:44:13.166Z,18.33
2023-09-17T06:45:13.051Z,18.30
2023-09-17T06:46:13.129Z,18.31
2023-09-17T06:47:13.102Z,18.30
2023-09-17T06:48:13.032Z,18.31
2023-09-17T06:49:13.004Z,18.33
2023-09-17T06:50:12.987Z,18.33
2023-09-17T06:51:13.042Z,18.34
2023-09-17T06:52:12.959Z,18.36
2023-09-17T06:53:12.984Z,18.36
2023-09-17T06:54:12.944Z,18.36
2023-09-17T06:55:12.934Z,18.38
2023-09-17T06:56:12.917Z,18.38
2023-09-17T06:57:12.964Z,18.39
2023-09-17T06:58:12.905Z,18.39
2023-09-17T06:59:12.895Z,18.38
2023-09-17T07:00:12.873Z,18.38
2023-09-17T07:01:12.959Z,18.39
2023-09-17T07:02:13.019Z,18.41
2023-09-17T07:03:12.896Z,18.42
2023-09-17T07:04:13.613Z,18.43
2023-09-17T07:05:12.946Z,18.46
2023-09-17T07:06:12.825Z,18.46
2023-09-17T07:07:12.803Z,18.48
2023-09-17T07:08:12.821Z,18.51
2023-09-17T07:09:12.784Z,18.52
2023-09-17T07:10:12.760Z,18.54
2023-09-17T07:11:12.759Z,18.56
2023-09-17T07:12:12.847Z,18.58
2023-09-17T07:13:12.731Z,18.60
2023-09-17T07:14:12.781Z,18.60
2023-09-17T07:15:12.756Z,18.63
2023-09-17T07:16:12.713Z,18.66
2023-09-17T07:17:12.737Z,18.68
2023-09-17T07:18:12.695Z,18.71
2023-09-17T07:19:12.745Z,18.75
2023-09-17T07:20:12.764Z,18.76
2023-09-17T07:21:12.641Z,18.78
2023-09-17T07:22:13.486Z,18.78
2023-09-17T07:23:12.624Z,18.81
2023-09-17T07:24:12.631Z,18.83
2023-09-17T07:25:12.666Z,18.86
2023-09-17T07:26:12.612Z,18.85
2023-09-17T07:27:12.576Z,18.89
2023-09-17T07:28:12.568Z,18.93
2023-09-17T07:29:12.556Z,18.96
2023-09-17T07:30:12.545Z,19.00
2023-09-17T07:31:12.702Z,19.05
2023-09-17T07:32:12.575Z,19.08
2023-09-17T07:33:12.535Z,19.12
2023-09-17T07:34:12.514Z,19.16
2023-09-17T07:35:12.518Z,19.19
2023-09-17T07:36:12.554Z,19.24
2023-09-17T07:37:12.469Z,19.31
2023-09-17T07:38:12.496Z,19.32
2023-09-17T07:39:12.446Z,19.38
2023-09-17T07:40:12.438Z,19.39
2023-09-17T07:41:12.448Z,19.41
2023-09-17T07:42:12.428Z,19.45
2023-09-17T07:43:12.452Z,19.52
2023-09-17T07:44:12.423Z,19.54
2023-09-17T07:45:12.385Z,19.60
2023-09-17T07:46:12.414Z,19.63
2023-09-17T07:47:12.396Z,19.68
2023-09-17T07:48:12.372Z,19.75
2023-09-17T07:49:12.390Z,19.78
2023-09-17T07:50:12.333Z,19.81
2023-09-17T07:51:12.326Z,19.84
2023-09-17T07:52:12.318Z,19.89
2023-09-17T07:53:12.316Z,19.93
2023-09-17T07:54:12.429Z,19.93
2023-09-17T07:55:12.274Z,19.94
2023-09-17T07:56:12.287Z,19.97
2023-09-17T07:57:12.257Z,20.02
2023-09-17T07:58:12.252Z,20.05
2023-09-17T07:59:12.254Z,20.07
2023-09-17T08:00:12.278Z,20.09
2023-09-17T08:01:12.224Z,20.11
2023-09-17T08:02:12.365Z,20.14
2023-09-17T08:03:12.283Z,20.17
2023-09-17T08:04:12.259Z,20.19
2023-09-17T08:05:12.275Z,20.22
2023-09-17T08:06:12.162Z,20.22
2023-09-17T08:07:12.246Z,20.25
2023-09-17T08:08:12.140Z,20.27
2023-09-17T08:09:12.185Z,20.30
2023-09-17T08:10:12.122Z,20.34
2023-09-17T08:11:12.129Z,20.37
2023-09-17T08:12:12.100Z,20.39
2023-09-17T08:13:12.164Z,20.42
2023-09-17T08:14:12.117Z,20.44
2023-09-17T08:15:12.057Z,20.46
2023-09-17T08:16:12.085Z,20.48
2023-09-17T08:17:12.075Z,20.52
2023-09-17T08:18:12.250Z,20.56
2023-09-17T08:19:12.023Z,20.60
2023-09-17T08:20:12.018Z,20.61
2023-09-17T08:21:12.003Z,20.64
2023-09-17T08:22:11.992Z,20.68
2023-09-17T08:23:12.011Z,20.73
2023-09-17T08:24:11.970Z,20.79
2023-09-17T08:25:11.962Z,20.80
2023-09-17T08:26:11.968Z,20.86
2023-09-17T08:27:12.028Z,20.89
2023-09-17T08:28:12.830Z,20.95
2023-09-17T08:29:11.911Z,20.98
2023-09-17T08:30:11.913Z,21.03
2023-09-17T08:31:11.938Z,21.10
2023-09-17T08:32:11.894Z,21.14
2023-09-17T08:33:11.901Z,21.18
2023-09-17T08:34:12.022Z,21.22
2023-09-17T08:35:11.850Z,21.25
2023-09-17T08:36:11.843Z,21.30
2023-09-17T08:37:11.902Z,21.30
2023-09-17T08:38:11.836Z,21.34
2023-09-17T08:39:11.810Z,21.41
2023-09-17T08:40:11.872Z,21.44
2023-09-17T08:41:11.906Z,21.48
2023-09-17T08:42:11.878Z,21.53
2023-09-17T08:43:11.848Z,21.58
2023-09-17T08:44:11.852Z,21.63
2023-09-17T08:45:11.783Z,21.66
2023-09-17T08:46:11.874Z,21.73
2023-09-17T08:47:11.741Z,21.74
2023-09-17T08:48:11.818Z,21.77
2023-09-17T08:49:11.740Z,21.80
2023-09-17T08:50:11.800Z,21.84
2023-09-17T08:51:11.691Z,21.85
2023-09-17T08:52:11.674Z,21.93
2023-09-17T08:53:11.691Z,21.96
2023-09-17T08:54:11.668Z,22.00
2023-09-17T08:55:11.641Z,22.03
2023-09-17T08:56:11.711Z,22.04
2023-09-17T08:57:11.646Z,22.09
2023-09-17T08:58:11.613Z,22.09
2023-09-17T08:59:11.604Z,22.09
2023-09-17T09:00:11.611Z,22.11
2023-09-17T09:01:11.598Z,22.11
2023-09-17T09:02:11.675Z,22.12
2023-09-17T09:03:11.766Z,22.12
2023-09-17T09:04:11.707Z,22.13
2023-09-17T09:05:11.537Z,22.13
2023-09-17T09:06:11.543Z,22.12
2023-09-17T09:07:11.534Z,22.13
2023-09-17T09:08:11.598Z,22.13
2023-09-17T09:09:11.500Z,22.15
2023-09-17T09:10:11.497Z,22.15
2023-09-17T09:11:11.611Z,22.15
2023-09-17T09:12:11.511Z,22.15
2023-09-17T09:13:11.492Z,22.18
2023-09-17T09:14:11.557Z,22.19
2023-09-17T09:15:11.462Z,22.22
2023-09-17T09:16:11.489Z,22.22
2023-09-17T09:17:11.582Z,22.22
2023-09-17T09:18:11.433Z,22.25
2023-09-17T09:19:11.517Z,22.27
2023-09-17T09:20:11.393Z,22.27
2023-09-17T09:21:11.406Z,22.31
2023-09-17T09:22:11.372Z,22.34
2023-09-17T09:23:11.389Z,22.37
2023-09-17T09:24:11.535Z,22.41
2023-09-17T09:25:11.446Z,22.43
2023-09-17T09:26:11.316Z,22.46
2023-09-17T09:27:11.333Z,22.52
2023-09-17T09:28:11.325Z,22.55
2023-09-17T09:29:11.355Z,22.56
2023-09-17T09:30:11.458Z,22.59
2023-09-17T09:31:11.316Z,22.61
2023-09-17T09:32:11.489Z,22.66
2023-09-17T09:33:11.430Z,22.68
2023-09-17T09:34:11.257Z,22.71
2023-09-17T09:35:11.272Z,22.73
2023-09-17T09:36:11.210Z,22.78
2023-09-17T09:37:11.202Z,22.81
2023-09-17T09:38:11.248Z,22.83
2023-09-17T09:39:11.176Z,22.88
2023-09-17T09:40:11.204Z,22.91
2023-09-17T09:41:13.066Z,22.92
2023-09-17T09:42:11.143Z,22.96
2023-09-17T09:43:11.153Z,23.01
2023-09-17T09:44:11.257Z,23.03
2023-09-17T09:45:11.104Z,23.11
2023-09-17T09:46:11.186Z,23.15
2023-09-17T09:47:11.114Z,23.21
2023-09-17T09:48:11.077Z,23.25
2023-09-17T09:49:11.056Z,23.29
2023-09-17T09:50:11.173Z,23.36
2023-09-17T09:51:11.057Z,23.37
2023-09-17T09:52:11.032Z,23.44
2023-09-17T09:53:11.122Z,23.48
2023-09-17T09:54:11.051Z,23.54
2023-09-17T09:55:11.048Z,23.56
2023-09-17T09:56:11.001Z,23.59
2023-09-17T09:57:10.976Z,23.60
2023-09-17T09:58:10.977Z,23.61
2023-09-17T09:59:10.987Z,23.56
2023-09-17T10:00:10.959Z,23.55
2023-09-17T10:01:11.048Z,23.55
2023-09-17T10:02:11.059Z,23.59
2023-09-17T10:03:10.960Z,23.61
2023-09-17T10:04:11.017Z,23.64
2023-09-17T10:05:10.925Z,23.66
2023-09-17T10:06:11.002Z,23.64
2023-09-17T10:07:10.880Z,23.64
2023-09-17T10:08:11.016Z,23.63
2023-09-17T10:09:10.861Z,23.61
2023-09-17T10:10:10.849Z,23.59
2023-09-17T10:11:10.871Z,23.60
2023-09-17T10:12:10.913Z,23.59
2023-09-17T10:13:10.821Z,23.56
2023-09-17T10:14:10.899Z,23.55
2023-09-17T10:15:10.804Z,23.52
2023-09-17T10:16:10.840Z,23.51
2023-09-17T10:17:10.771Z,23.49
2023-09-17T10:18:10.862Z,23.48
2023-09-17T10:19:10.753Z,23.48
